»·PEaware :: SKW5431 KSFO-KJAC

SKW5431 :: KSFO-KJAC

FLIGHT INFORMATION

Flight Status: Arrived
Operator:
SkyWest Airlines
More flights by this operator :: More flights under this callsign
Pilot: Matt B. (19713)
Aircraft: CANADAIR CL-600 CRJ-700
(CRJ7)
More flights by this aircraft type
Origin: KSFO San Francisco Intl
United States
Destination: KJAC Jackson Hole
United States
More flights between these airports :: More routes between these airports
Route: TRUKN2 ORRCA Q120 GALLI PARZZ PIH JOGOX DNW
File this flight plan on PilotEdge
Remarks:
Altitude:
(Current/Filed)
37,000ft
Speed:
(Current/Filed)
441kts
Departed: 26-Dec-18 03:00 PM
Arrived: 26-Dec-18 04:47 PM
Distance/Time
Traveled:
639nm/1:46
Distance/Time
To Go:
Arrived

Flight Plot

Page will automatically refresh every two minutes.

Flight plan parsing failed; only flown route is shown


Map Options




Map Legend


Flown Route
Filed Route
Departure Airport
Arrival Airport
Navaid (VOR, NDB)
Fix

Horizontal Profiles

Position Reports

Time Latitude Longitude Heading Altitude Ground
Speed
26-Dec-18 14:39 37.618954 -122.385686 188 20ft 0kts
26-Dec-18 14:40 37.618954 -122.385686 188 20ft 0kts
26-Dec-18 14:41 37.618954 -122.385686 188 20ft 0kts
26-Dec-18 14:42 37.618954 -122.385686 188 20ft 0kts
26-Dec-18 14:43 37.618954 -122.385686 188 20ft 0kts
26-Dec-18 14:44 37.618954 -122.385686 188 20ft 0kts
26-Dec-18 14:45 37.618954 -122.385686 188 20ft 0kts
26-Dec-18 14:46 37.618954 -122.385686 188 20ft 0kts
26-Dec-18 14:47 37.618954 -122.385686 188 20ft 0kts
26-Dec-18 14:48 37.618954 -122.385686 188 20ft 0kts
26-Dec-18 14:49 37.618954 -122.385686 188 20ft 0kts
26-Dec-18 14:50 37.619399 -122.385893 129 20ft 2kts
26-Dec-18 14:51 37.619502 -122.386093 118 20ft 0kts
26-Dec-18 14:52 37.619501 -122.386091 118 20ft 0kts
26-Dec-18 14:53 37.620246 -122.385191 26 20ft 0kts
26-Dec-18 14:54 37.620247 -122.385190 26 20ft 0kts
26-Dec-18 14:55 37.620336 -122.383628 117 20ft 15kts
26-Dec-18 14:56 37.616624 -122.379645 206 20ft 20kts
26-Dec-18 14:57 37.611677 -122.382917 208 20ft 20kts
26-Dec-18 14:58 37.609312 -122.383198 119 20ft 2kts
26-Dec-18 14:59 37.617309 -122.376694 27 20ft 133kts
26-Dec-18 15:00 37.649172 -122.337614 54 2624ft 171kts
26-Dec-18 15:01 37.683714 -122.278257 50 3893ft 242kts
26-Dec-18 15:02 37.723882 -122.205584 42 6513ft 259kts
26-Dec-18 15:03 37.784668 -122.154368 30 9243ft 270kts
26-Dec-18 15:04 37.848299 -122.096626 31 11240ft 303kts
26-Dec-18 15:05 37.920019 -122.031276 30 13271ft 326kts
26-Dec-18 15:06 37.994974 -121.963402 30 15556ft 336kts
26-Dec-18 15:07 38.072112 -121.893250 30 17703ft 345kts
26-Dec-18 15:08 38.151092 -121.820878 30 19665ft 355kts
26-Dec-18 15:09 38.232114 -121.746573 29 21456ft 365kts
26-Dec-18 15:10 38.315798 -121.669770 29 23119ft 374kts
26-Dec-18 15:11 38.401307 -121.591076 29 24634ft 385kts
26-Dec-18 15:12 38.481561 -121.496933 47 25986ft 408kts
26-Dec-18 15:13 38.548783 -121.378078 44 27215ft 414kts
26-Dec-18 15:14 38.621308 -121.261401 46 28351ft 424kts
26-Dec-18 15:15 38.693891 -121.141259 46 29381ft 431kts
26-Dec-18 15:16 38.767695 -121.018927 45 30626ft 431kts
26-Dec-18 15:17 38.841045 -120.897145 45 31723ft 431kts
26-Dec-18 15:18 38.914244 -120.775126 45 32697ft 431kts
26-Dec-18 15:19 38.987050 -120.653160 46 33604ft 430kts
26-Dec-18 15:20 39.059799 -120.530674 46 34381ft 431kts
26-Dec-18 15:21 39.132735 -120.407786 46 35111ft 432kts
26-Dec-18 15:22 39.205203 -120.285110 46 35907ft 431kts
26-Dec-18 15:23 39.277886 -120.161682 46 36584ft 432kts
26-Dec-18 15:24 39.350469 -120.037731 46 37122ft 435kts
26-Dec-18 15:25 39.423702 -119.912336 46 37187ft 437kts
26-Dec-18 15:26 39.496713 -119.786853 46 37192ft 435kts
26-Dec-18 15:27 39.569336 -119.661525 46 37193ft 436kts
26-Dec-18 15:28 39.642322 -119.534737 47 37195ft 438kts
26-Dec-18 15:29 39.715292 -119.407707 46 37198ft 440kts
26-Dec-18 15:30 39.788489 -119.279519 47 37201ft 443kts
26-Dec-18 15:31 39.862162 -119.150287 47 37203ft 445kts
26-Dec-18 15:32 39.933164 -119.018702 51 37203ft 446kts
26-Dec-18 15:33 39.998802 -118.884217 53 37203ft 446kts
26-Dec-18 15:34 40.056612 -118.744579 56 37203ft 449kts
26-Dec-18 15:35 40.117571 -118.602729 55 37203ft 446kts
26-Dec-18 15:36 40.177405 -118.460873 55 37202ft 444kts
26-Dec-18 15:37 40.236859 -118.319577 55 37201ft 443kts
26-Dec-18 15:38 40.295931 -118.178536 56 37199ft 441kts
26-Dec-18 15:39 40.355898 -118.038297 54 37197ft 438kts
26-Dec-18 15:40 40.416650 -117.900099 55 37195ft 437kts
26-Dec-18 15:41 40.476824 -117.761179 55 37193ft 436kts
26-Dec-18 15:42 40.536905 -117.621844 55 37196ft 439kts
26-Dec-18 15:43 40.590378 -117.497388 55 37196ft 440kts
26-Dec-18 15:44 40.650524 -117.356761 56 37197ft 442kts
26-Dec-18 15:46 40.710883 -117.215105 56 37199ft 445kts
26-Dec-18 15:47 40.771472 -117.072315 56 37200ft 447kts
26-Dec-18 15:48 40.832113 -116.928564 56 37200ft 447kts
26-Dec-18 15:49 40.892136 -116.785554 56 37198ft 445kts
26-Dec-18 15:50 40.952133 -116.641855 56 37192ft 446kts
26-Dec-18 15:51 41.012078 -116.498379 56 37186ft 443kts
26-Dec-18 15:52 41.071118 -116.355733 57 37181ft 442kts
26-Dec-18 15:53 41.130172 -116.212109 57 37178ft 443kts
26-Dec-18 15:54 41.189100 -116.068229 57 37175ft 445kts
26-Dec-18 15:55 41.248203 -115.923617 57 37175ft 447kts
26-Dec-18 15:56 41.307437 -115.778246 57 37175ft 448kts
26-Dec-18 15:57 41.366517 -115.631836 58 37168ft 450kts
26-Dec-18 15:58 41.425295 -115.485348 58 37166ft 449kts
26-Dec-18 15:59 41.483899 -115.338993 58 37164ft 446kts
26-Dec-18 16:00 41.542057 -115.193019 58 37162ft 447kts
26-Dec-18 16:01 41.600034 -115.045777 59 37160ft 449kts
26-Dec-18 16:02 41.672668 -114.912499 47 37159ft 443kts
26-Dec-18 16:03 41.745163 -114.779247 50 37156ft 445kts
26-Dec-18 16:04 41.818779 -114.645510 49 37151ft 446kts
26-Dec-18 16:05 41.892189 -114.510380 49 37148ft 447kts
26-Dec-18 16:05 41.953028 -114.398024 50 37146ft 447kts
26-Dec-18 16:07 42.038401 -114.239475 50 37142ft 448kts
26-Dec-18 16:07 42.099059 -114.126546 50 37141ft 449kts
26-Dec-18 16:09 42.184398 -113.967018 50 37137ft 449kts
26-Dec-18 16:09 42.242259 -113.858353 50 37136ft 449kts
26-Dec-18 16:10 42.315380 -113.720951 50 37134ft 450kts
26-Dec-18 16:11 42.387929 -113.583276 50 37134ft 450kts
26-Dec-18 16:12 42.460217 -113.445364 50 37134ft 448kts
26-Dec-18 16:13 42.532094 -113.307943 50 37136ft 444kts
26-Dec-18 16:14 42.603340 -113.171126 50 37141ft 446kts
26-Dec-18 16:15 42.674458 -113.033686 51 37145ft 446kts
26-Dec-18 16:16 42.745555 -112.895648 51 37146ft 444kts
26-Dec-18 16:17 42.816364 -112.758121 51 37149ft 442kts
26-Dec-18 16:18 42.880834 -112.615676 66 37151ft 447kts
26-Dec-18 16:19 42.902754 -112.448791 74 37154ft 451kts
26-Dec-18 16:20 42.933591 -112.283473 75 37151ft 457kts
26-Dec-18 16:21 42.959398 -112.122151 75 37148ft 461kts
26-Dec-18 16:22 42.988100 -111.950225 75 37134ft 465kts
26-Dec-18 16:23 43.016156 -111.777025 75 37124ft 468kts
26-Dec-18 16:24 43.044247 -111.603976 75 35542ft 458kts
26-Dec-18 16:25 43.070982 -111.436804 75 33140ft 442kts
26-Dec-18 16:26 43.096786 -111.273571 75 30747ft 439kts
26-Dec-18 16:27 43.122094 -111.112844 75 28347ft 422kts
26-Dec-18 16:28 43.145966 -110.958269 75 25944ft 409kts
26-Dec-18 16:29 43.188442 -110.824097 36 24080ft 367kts
26-Dec-18 16:30 43.272599 -110.760208 22 24033ft 345kts
26-Dec-18 16:31 43.358591 -110.691123 31 23224ft 362kts
26-Dec-18 16:32 43.438496 -110.609648 33 21526ft 368kts
26-Dec-18 16:33 43.518114 -110.526749 33 19823ft 346kts
26-Dec-18 16:34 43.594288 -110.446119 33 18124ft 341kts
26-Dec-18 16:35 43.667683 -110.368026 33 16421ft 323kts
26-Dec-18 16:36 43.738243 -110.294768 33 14720ft 314kts
26-Dec-18 16:37 43.806885 -110.240280 356 13889ft 270kts
26-Dec-18 16:38 43.841651 -110.312102 249 13194ft 255kts
26-Dec-18 16:39 43.821926 -110.406158 268 12332ft 264kts
26-Dec-18 16:40 43.816187 -110.507877 264 11188ft 265kts
26-Dec-18 16:41 43.791626 -110.600048 240 10221ft 240kts
26-Dec-18 16:42 43.747324 -110.660588 217 8945ft 226kts
26-Dec-18 16:43 43.698152 -110.693458 196 8268ft 178kts
26-Dec-18 16:44 43.655902 -110.714066 198 7309ft 150kts
26-Dec-18 16:45 43.617320 -110.732944 197 6521ft 141kts
26-Dec-18 16:46 43.599636 -110.739972 31 6458ft 14kts
26-Dec-18 16:47 43.602250 -110.738612 18 6458ft 23kts
26-Dec-18 16:48 43.604596 -110.737196 224 6458ft 13kts
26-Dec-18 16:49 43.602245 -110.737674 108 6458ft 3kts
26-Dec-18 16:50 43.602243 -110.737665 108 6458ft 0kts

Navigation Log

Ident Type
Flight plan parsing failed, navigation log unavailable